sensor_id;sensor_type;location;lat;lon;timestamp;pressure;altitude;pressure_sealevel;temperature;humidity
2268;BME280;11052;43.338;25.502;2024-01-15T00:00:23;100181.16;;;-3.58;100.00
2268;BME280;11052;43.338;25.502;2024-01-15T00:02:51;100186.19;;;-3.60;100.00
2268;BME280;11052;43.338;25.502;2024-01-15T00:05:20;100182.75;;;-3.62;100.00
2268;BME280;11052;43.338;25.502;2024-01-15T00:07:47;100182.75;;;-3.62;100.00
2268;BME280;11052;43.338;25.502;2024-01-15T00:10:14;100176.75;;;-3.66;100.00
2268;BME280;11052;43.338;25.502;2024-01-15T00:12:41;100178.22;;;-3.75;100.00
2268;BME280;11052;43.338;25.502;2024-01-15T00:15:09;100184.72;;;-3.85;100.00
2268;BME280;11052;43.338;25.502;2024-01-15T00:17:36;100178.84;;;-3.84;100.00
2268;BME280;11052;43.338;25.502;2024-01-15T00:20:04;100187.28;;;-3.83;100.00
2268;BME280;11052;43.338;25.502;2024-01-15T00:22:33;100187.16;;;-3.88;100.00
2268;BME280;11052;43.338;25.502;2024-01-15T00:25:01;100178.34;;;-4.02;100.00
2268;BME280;11052;43.338;25.502;2024-01-15T00:27:28;100179.41;;;-3.94;100.00
2268;BME280;11052;43.338;25.502;2024-01-15T00:29:55;100177.19;;;-3.82;100.00
2268;BME280;11052;43.338;25.502;2024-01-15T00:32:22;100177.28;;;-3.79;100.00
2268;BME280;11052;43.338;25.502;2024-01-15T00:34:50;100177.84;;;-3.89;100.00
2268;BME280;11052;43.338;25.502;2024-01-15T00:37:17;100174.59;;;-3.85;100.00
2268;BME280;11052;43.338;25.502;2024-01-15T00:39:46;100160.38;;;-3.80;100.00
2268;BME280;11052;43.338;25.502;2024-01-15T00:42:13;100167.22;;;-3.76;100.00
2268;BME280;11052;43.338;25.502;2024-01-15T00:44:40;100177.22;;;-3.80;100.00
2268;BME280;11052;43.338;25.502;2024-01-15T00:47:07;100172.84;;;-3.87;100.00
2268;BME280;11052;43.338;25.502;2024-01-15T00:49:33;100171.94;;;-3.89;100.00
2268;BME280;11052;43.338;25.502;2024-01-15T00:52:00;100171.00;;;-3.93;100.00
2268;BME280;11052;43.338;25.502;2024-01-15T00:54:27;100169.91;;;-4.03;100.00
2268;BME280;11052;43.338;25.502;2024-01-15T00:56:56;100165.31;;;-4.16;100.00
2268;BME280;11052;43.338;25.502;2024-01-15T00:59:23;100159.44;;;-4.15;100.00
2268;BME280;11052;43.338;25.502;2024-01-15T01:01:51;100152.72;;;-4.14;100.00
2268;BME280;11052;43.338;25.502;2024-01-15T01:04:18;100157.06;;;-4.42;100.00
2268;BME280;11052;43.338;25.502;2024-01-15T01:06:45;100154.84;;;-4.61;100.00
2268;BME280;11052;43.338;25.502;2024-01-15T01:09:12;100152.38;;;-4.58;100.00
2268;BME280;11052;43.338;25.502;2024-01-15T01:11:40;100147.75;;;-4.43;100.00
2268;BME280;11052;43.338;25.502;2024-01-15T01:14:08;100149.72;;;-4.31;100.00
2268;BME280;11052;43.338;25.502;2024-01-15T01:16:35;100143.16;;;-4.24;100.00
2268;BME280;11052;43.338;25.502;2024-01-15T01:19:04;100144.81;;;-4.26;100.00
2268;BME280;11052;43.338;25.502;2024-01-15T01:21:32;100138.78;;;-4.30;100.00
2268;BME280;11052;43.338;25.502;2024-01-15T01:24:00;100133.78;;;-4.29;100.00
2268;BME280;11052;43.338;25.502;2024-01-15T01:26:27;100140.47;;;-4.31;100.00
2268;BME280;11052;43.338;25.502;2024-01-15T01:28:54;100138.03;;;-4.28;100.00
2268;BME280;11052;43.338;25.502;2024-01-15T01:31:23;100128.03;;;-4.23;100.00
2268;BME280;11052;43.338;25.502;2024-01-15T01:33:50;100130.75;;;-4.15;100.00
2268;BME280;11052;43.338;25.502;2024-01-15T01:36:17;100138.09;;;-4.24;100.00
2268;BME280;11052;43.338;25.502;2024-01-15T01:38:45;100134.28;;;-4.42;100.00
2268;BME280;11052;43.338;25.502;2024-01-15T01:41:12;100137.38;;;-4.52;100.00
2268;BME280;11052;43.338;25.502;2024-01-15T01:43:39;100137.19;;;-4.59;100.00
2268;BME280;11052;43.338;25.502;2024-01-15T01:46:06;100138.84;;;-4.60;100.00
2268;BME280;11052;43.338;25.502;2024-01-15T01:48:35;100137.25;;;-4.56;100.00
2268;BME280;11052;43.338;25.502;2024-01-15T01:51:04;100137.44;;;-4.50;100.00
2268;BME280;11052;43.338;25.502;2024-01-15T01:53:33;100140.81;;;-4.50;100.00
2268;BME280;11052;43.338;25.502;2024-01-15T01:56:02;100132.34;;;-4.52;100.00
2268;BME280;11052;43.338;25.502;2024-01-15T01:58:32;100138.94;;;-4.57;100.00
2268;BME280;11052;43.338;25.502;2024-01-15T02:00:59;100123.69;;;-4.60;100.00
2268;BME280;11052;43.338;25.502;2024-01-15T02:03:27;100130.63;;;-4.53;100.00
2268;BME280;11052;43.338;25.502;2024-01-15T02:05:56;100123.06;;;-4.51;100.00
2268;BME280;11052;43.338;25.502;2024-01-15T02:08:23;100121.28;;;-4.55;100.00
2268;BME280;11052;43.338;25.502;2024-01-15T02:10:51;100113.00;;;-4.50;100.00
2268;BME280;11052;43.338;25.502;2024-01-15T02:13:18;100107.97;;;-4.48;100.00
2268;BME280;11052;43.338;25.502;2024-01-15T02:15:46;100106.34;;;-4.46;100.00
2268;BME280;11052;43.338;25.502;2024-01-15T02:18:13;100101.38;;;-4.43;100.00
2268;BME280;11052;43.338;25.502;2024-01-15T02:20:40;100106.06;;;-4.57;100.00
2268;BME280;11052;43.338;25.502;2024-01-15T02:23:10;100102.59;;;-4.60;100.00
2268;BME280;11052;43.338;25.502;2024-01-15T02:25:38;100105.84;;;-4.65;100.00
2268;BME280;11052;43.338;25.502;2024-01-15T02:28:06;100101.56;;;-4.67;100.00
2268;BME280;11052;43.338;25.502;2024-01-15T02:30:37;100103.34;;;-4.63;100.00
2268;BME280;11052;43.338;25.502;2024-01-15T02:33:05;100094.09;;;-4.63;100.00
2268;BME280;11052;43.338;25.502;2024-01-15T02:35:32;100089.66;;;-4.71;100.00
2268;BME280;11052;43.338;25.502;2024-01-15T02:38:02;100089.47;;;-4.77;100.00
2268;BME280;11052;43.338;25.502;2024-01-15T02:40:31;100088.56;;;-4.79;100.00
2268;BME280;11052;43.338;25.502;2024-01-15T02:42:58;100085.19;;;-4.80;100.00
2268;BME280;11052;43.338;25.502;2024-01-15T02:45:25;100085.88;;;-4.85;100.00
2268;BME280;11052;43.338;25.502;2024-01-15T02:47:53;100083.66;;;-4.75;100.00
2268;BME280;11052;43.338;25.502;2024-01-15T02:50:20;100084.50;;;-4.74;100.00
2268;BME280;11052;43.338;25.502;2024-01-15T02:52:47;100086.13;;;-4.76;100.00
2268;BME280;11052;43.338;25.502;2024-01-15T02:55:14;100087.75;;;-4.78;100.00
2268;BME280;11052;43.338;25.502;2024-01-15T02:57:43;100087.63;;;-4.83;100.00
2268;BME280;11052;43.338;25.502;2024-01-15T03:00:11;100091.78;;;-4.85;100.00
2268;BME280;11052;43.338;25.502;2024-01-15T03:02:39;100085.88;;;-4.85;100.00
2268;BME280;11052;43.338;25.502;2024-01-15T03:05:09;100082.53;;;-4.84;100.00
2268;BME280;11052;43.338;25.502;2024-01-15T03:07:36;100080.06;;;-4.83;100.00
2268;BME280;11052;43.338;25.502;2024-01-15T03:10:05;100072.38;;;-4.86;100.00
2268;BME280;11052;43.338;25.502;2024-01-15T03:12:32;100070.94;;;-4.78;100.00
2268;BME280;11052;43.338;25.502;2024-01-15T03:15:01;100073.31;;;-4.82;100.00
2268;BME280;11052;43.338;25.502;2024-01-15T03:17:28;100074.22;;;-4.80;100.00
2268;BME280;11052;43.338;25.502;2024-01-15T03:19:56;100075.13;;;-4.78;100.00
2268;BME280;11052;43.338;25.502;2024-01-15T03:22:23;100070.84;;;-4.81;100.00
2268;BME280;11052;43.338;25.502;2024-01-15T03:24:50;100068.81;;;-4.92;100.00
2268;BME280;11052;43.338;25.502;2024-01-15T03:27:17;100063.09;;;-4.87;100.00
2268;BME280;11052;43.338;25.502;2024-01-15T03:29:44;100064.03;;;-4.83;100.00
2268;BME280;11052;43.338;25.502;2024-01-15T03:32:13;100066.22;;;-4.96;100.00
2268;BME280;11052;43.338;25.502;2024-01-15T03:34:41;100070.63;;;-4.88;100.00
2268;BME280;11052;43.338;25.502;2024-01-15T03:37:08;100064.94;;;-4.81;100.00
2268;BME280;11052;43.338;25.502;2024-01-15T03:39:36;100064.94;;;-4.81;100.00
2268;BME280;11052;43.338;25.502;2024-01-15T03:42:03;100065.81;;;-4.79;100.00
2268;BME280;11052;43.338;25.502;2024-01-15T03:44:30;100065.63;;;-4.87;100.00
2268;BME280;11052;43.338;25.502;2024-01-15T03:46:58;100059.34;;;-5.00;100.00
2268;BME280;11052;43.338;25.502;2024-01-15T03:49:26;100054.47;;;-4.93;100.00
2268;BME280;11052;43.338;25.502;2024-01-15T03:51:54;100056.31;;;-4.88;100.00
2268;BME280;11052;43.338;25.502;2024-01-15T03:54:21;100051.09;;;-4.94;100.00
2268;BME280;11052;43.338;25.502;2024-01-15T03:56:48;100048.34;;;-5.02;100.00
2268;BME280;11052;43.338;25.502;2024-01-15T03:59:15;100055.63;;;-5.12;100.00
2268;BME280;11052;43.338;25.502;2024-01-15T04:01:48;100045.34;;;-5.20;100.00
2268;BME280;11052;43.338;25.502;2024-01-15T04:04:16;100046.09;;;-5.22;100.00
2268;BME280;11052;43.338;25.502;2024-01-15T04:06:45;100041.81;;;-5.25;100.00
2268;BME280;11052;43.338;25.502;2024-01-15T04:09:13;100044.25;;;-5.28;100.00
2268;BME280;11052;43.338;25.502;2024-01-15T04:11:40;100051.38;;;-5.43;100.00
2268;BME280;11052;43.338;25.502;2024-01-15T04:14:07;100051.69;;;-5.33;100.00
2268;BME280;11052;43.338;25.502;2024-01-15T04:16:35;100044.03;;;-5.36;100.00
2268;BME280;11052;43.338;25.502;2024-01-15T04:19:02;100036.53;;;-5.33;100.00
2268;BME280;11052;43.338;25.502;2024-01-15T04:21:29;100037.09;;;-5.43;100.00
2268;BME280;11052;43.338;25.502;2024-01-15T04:23:58;100046.72;;;-5.30;100.00
2268;BME280;11052;43.338;25.502;2024-01-15T04:26:25;100054.56;;;-5.20;100.00
2268;BME280;11052;43.338;25.502;2024-01-15T04:28:52;100041.09;;;-5.21;100.00
2268;BME280;11052;43.338;25.502;2024-01-15T04:31:23;100036.53;;;-5.33;100.00
2268;BME280;11052;43.338;25.502;2024-01-15T04:33:50;100031.34;;;-5.37;100.00
2268;BME280;11052;43.338;25.502;2024-01-15T04:36:18;100033.88;;;-5.37;100.00
2268;BME280;11052;43.338;25.502;2024-01-15T04:38:45;100027.25;;;-5.34;100.00
2268;BME280;11052;43.338;25.502;2024-01-15T04:41:14;100033.16;;;-5.33;100.00
2268;BME280;11052;43.338;25.502;2024-01-15T04:43:42;100025.59;;;-5.33;100.00
2268;BME280;11052;43.338;25.502;2024-01-15T04:46:10;100030.69;;;-5.32;100.00
2268;BME280;11052;43.338;25.502;2024-01-15T04:48:37;100037.22;;;-5.38;100.00
2268;BME280;11052;43.338;25.502;2024-01-15T04:51:05;100027.16;;;-5.37;100.00
2268;BME280;11052;43.338;25.502;2024-01-15T04:53:34;100026.25;;;-5.39;100.00
2268;BME280;11052;43.338;25.502;2024-01-15T04:56:01;100027.84;;;-5.42;100.00
2268;BME280;11052;43.338;25.502;2024-01-15T04:58:30;100020.56;;;-5.32;100.00
2268;BME280;11052;43.338;25.502;2024-01-15T05:00:57;100023.16;;;-5.30;100.00
2268;BME280;11052;43.338;25.502;2024-01-15T05:03:24;100023.31;;;-5.24;100.00
2268;BME280;11052;43.338;25.502;2024-01-15T05:05:51;100020.25;;;-5.42;100.00
2268;BME280;11052;43.338;25.502;2024-01-15T05:08:19;100014.50;;;-5.38;100.00
2268;BME280;11052;43.338;25.502;2024-01-15T05:10:46;100022.34;;;-5.29;100.00
2268;BME280;11052;43.338;25.502;2024-01-15T05:13:13;100023.81;;;-5.36;100.00
2268;BME280;11052;43.338;25.502;2024-01-15T05:15:42;100020.84;;;-5.22;100.00
2268;BME280;11052;43.338;25.502;2024-01-15T05:18:09;100017.91;;;-5.36;100.00
2268;BME280;11052;43.338;25.502;2024-01-15T05:20:36;100008.41;;;-5.45;100.00
2268;BME280;11052;43.338;25.502;2024-01-15T05:23:03;100004.03;;;-5.50;100.00
2268;BME280;11052;43.338;25.502;2024-01-15T05:25:31;100001.59;;;-5.47;100.00
2268;BME280;11052;43.338;25.502;2024-01-15T05:27:58;100007.72;;;-5.39;100.00
2268;BME280;11052;43.338;25.502;2024-01-15T05:30:25;100004.69;;;-5.28;100.00
2268;BME280;11052;43.338;25.502;2024-01-15T05:32:54;99992.16;;;-5.24;100.00
2268;BME280;11052;43.338;25.502;2024-01-15T05:35:21;99997.16;;;-5.26;100.00
2268;BME280;11052;43.338;25.502;2024-01-15T05:37:48;99993.56;;;-5.34;100.00
2268;BME280;11052;43.338;25.502;2024-01-15T05:40:15;99991.59;;;-5.44;100.00
2268;BME280;11052;43.338;25.502;2024-01-15T05:42:42;99985.25;;;-5.30;100.00
2268;BME280;11052;43.338;25.502;2024-01-15T05:45:09;99987.31;;;-5.47;100.00
2268;BME280;11052;43.338;25.502;2024-01-15T05:47:37;99988.59;;;-5.31;100.00
2268;BME280;11052;43.338;25.502;2024-01-15T05:50:08;99990.13;;;-5.36;100.00
2268;BME280;11052;43.338;25.502;2024-01-15T05:52:35;99991.66;;;-5.41;100.00
2268;BME280;11052;43.338;25.502;2024-01-15T05:55:03;99991.84;;;-5.35;100.00
2268;BME280;11052;43.338;25.502;2024-01-15T05:57:30;99986.97;;;-5.29;100.00
2268;BME280;11052;43.338;25.502;2024-01-15T05:59:58;99985.91;;;-5.06;100.00
2268;BME280;11052;43.338;25.502;2024-01-15T06:02:25;99982.72;;;-4.99;100.00
2268;BME280;11052;43.338;25.502;2024-01-15T06:04:52;99987.00;;;-4.96;100.00
2268;BME280;11052;43.338;25.502;2024-01-15T06:07:21;99988.28;;;-4.80;100.00
2268;BME280;11052;43.338;25.502;2024-01-15T06:09:48;99979.41;;;-4.65;100.00
2268;BME280;11052;43.338;25.502;2024-01-15T06:12:15;99973.91;;;-4.50;100.00
2268;BME280;11052;43.338;25.502;2024-01-15T06:14:42;99972.34;;;-4.45;100.00
2268;BME280;11052;43.338;25.502;2024-01-15T06:17:09;99963.19;;;-4.40;100.00
2268;BME280;11052;43.338;25.502;2024-01-15T06:19:37;99967.47;;;-4.37;100.00
2268;BME280;11052;43.338;25.502;2024-01-15T06:22:04;99971.09;;;-4.26;100.00
2268;BME280;11052;43.338;25.502;2024-01-15T06:24:32;99968.84;;;-4.14;100.00
2268;BME280;11052;43.338;25.502;2024-01-15T06:27:00;99965.59;;;-4.08;100.00
2268;BME280;11052;43.338;25.502;2024-01-15T06:29:27;99960.56;;;-4.07;100.00
2268;BME280;11052;43.338;25.502;2024-01-15T06:31:55;99964.91;;;-4.01;100.00
2268;BME280;11052;43.338;25.502;2024-01-15T06:34:22;99960.84;;;-3.94;100.00
2268;BME280;11052;43.338;25.502;2024-01-15T06:36:49;99961.91;;;-3.85;100.00
2268;BME280;11052;43.338;25.502;2024-01-15T06:39:16;99961.25;;;-3.76;100.00
2268;BME280;11052;43.338;25.502;2024-01-15T06:41:45;99952.00;;;-3.76;100.00
2268;BME280;11052;43.338;25.502;2024-01-15T06:44:12;99957.19;;;-3.70;100.00
2268;BME280;11052;43.338;25.502;2024-01-15T06:46:42;99962.25;;;-3.70;100.00
2268;BME280;11052;43.338;25.502;2024-01-15T06:49:09;99954.72;;;-3.67;100.00
2268;BME280;11052;43.338;25.502;2024-01-15T06:51:37;99960.59;;;-3.68;100.00
2268;BME280;11052;43.338;25.502;2024-01-15T06:54:05;99959.03;;;-3.63;100.00
2268;BME280;11052;43.338;25.502;2024-01-15T06:56:32;99947.19;;;-3.64;100.00
2268;BME280;11052;43.338;25.502;2024-01-15T06:59:01;99942.38;;;-3.51;100.00
2268;BME280;11052;43.338;25.502;2024-01-15T07:01:28;99954.03;;;-3.16;100.00
2268;BME280;11052;43.338;25.502;2024-01-15T07:03:56;99938.59;;;-2.83;100.00
2268;BME280;11052;43.338;25.502;2024-01-15T07:06:23;99941.78;;;-2.45;100.00
2268;BME280;11052;43.338;25.502;2024-01-15T07:08:50;99940.72;;;-2.05;100.00
2268;BME280;11052;43.338;25.502;2024-01-15T07:11:17;99939.47;;;-1.74;100.00
2268;BME280;11052;43.338;25.502;2024-01-15T07:13:45;99939.78;;;-1.48;100.00
2268;BME280;11052;43.338;25.502;2024-01-15T07:16:13;99944.28;;;-1.25;100.00
2268;BME280;11052;43.338;25.502;2024-01-15T07:18:43;99947.13;;;-1.00;100.00
2268;BME280;11052;43.338;25.502;2024-01-15T07:21:11;99937.19;;;-0.74;100.00
2268;BME280;11052;43.338;25.502;2024-01-15T07:23:38;99950.91;;;-0.58;100.00
2268;BME280;11052;43.338;25.502;2024-01-15T07:26:05;99951.84;;;-0.47;100.00
2268;BME280;11052;43.338;25.502;2024-01-15T07:28:33;99962.13;;;-0.38;100.00
2268;BME280;11052;43.338;25.502;2024-01-15T07:31:00;99960.59;;;-0.17;100.00
2268;BME280;11052;43.338;25.502;2024-01-15T07:33:31;99949.66;;;-0.03;100.00
2268;BME280;11052;43.338;25.502;2024-01-15T07:35:58;99950.63;;;0.19;100.00
2268;BME280;11052;43.338;25.502;2024-01-15T07:38:25;99945.63;;;0.38;100.00
2268;BME280;11052;43.338;25.502;2024-01-15T07:40:52;99949.06;;;0.43;100.00
2268;BME280;11052;43.338;25.502;2024-01-15T07:43:19;99936.44;;;0.72;100.00
2268;BME280;11052;43.338;25.502;2024-01-15T07:45:46;99927.16;;;0.99;100.00
2268;BME280;11052;43.338;25.502;2024-01-15T07:48:15;99931.44;;;1.17;100.00
2268;BME280;11052;43.338;25.502;2024-01-15T07:50:44;99925.53;;;1.52;100.00
2268;BME280;11052;43.338;25.502;2024-01-15T07:53:11;99919.56;;;1.71;100.00
2268;BME280;11052;43.338;25.502;2024-01-15T07:55:38;99923.78;;;1.87;100.00
2268;BME280;11052;43.338;25.502;2024-01-15T07:58:05;99932.31;;;1.95;100.00
2268;BME280;11052;43.338;25.502;2024-01-15T08:00:32;99928.88;;;2.01;100.00
2268;BME280;11052;43.338;25.502;2024-01-15T08:03:00;99933.16;;;2.01;100.00
2268;BME280;11052;43.338;25.502;2024-01-15T08:05:28;99943.34;;;2.13;100.00
2268;BME280;11052;43.338;25.502;2024-01-15T08:07:57;99942.47;;;2.24;100.00
2268;BME280;11052;43.338;25.502;2024-01-15T08:10:24;99926.25;;;2.39;100.00
2268;BME280;11052;43.338;25.502;2024-01-15T08:12:52;99927.84;;;2.61;100.00
2268;BME280;11052;43.338;25.502;2024-01-15T08:15:19;99928.59;;;2.85;100.00
2268;BME280;11052;43.338;25.502;2024-01-15T08:17:46;99912.19;;;3.21;98.77
2268;BME280;11052;43.338;25.502;2024-01-15T08:20:13;99911.28;;;3.28;100.00
2268;BME280;11052;43.338;25.502;2024-01-15T08:22:41;99913.75;;;3.45;94.40
2268;BME280;11052;43.338;25.502;2024-01-15T08:25:10;99912.09;;;3.35;95.03
2268;BME280;11052;43.338;25.502;2024-01-15T08:27:38;99902.56;;;3.50;91.99
2268;BME280;11052;43.338;25.502;2024-01-15T08:30:07;99906.75;;;3.59;91.03
2268;BME280;11052;43.338;25.502;2024-01-15T08:32:34;99911.09;;;3.49;94.37
2268;BME280;11052;43.338;25.502;2024-01-15T08:35:03;99910.16;;;3.62;92.37
2268;BME280;11052;43.338;25.502;2024-01-15T08:37:30;99904.16;;;3.65;93.41
2268;BME280;11052;43.338;25.502;2024-01-15T08:39:57;99899.03;;;3.63;93.26
2268;BME280;11052;43.338;25.502;2024-01-15T08:42:26;99893.78;;;3.77;88.34
2268;BME280;11052;43.338;25.502;2024-01-15T08:44:53;99888.72;;;3.73;90.91
2268;BME280;11052;43.338;25.502;2024-01-15T08:47:20;99887.00;;;3.73;91.72
2268;BME280;11052;43.338;25.502;2024-01-15T08:49:47;99887.84;;;3.72;90.21
2268;BME280;11052;43.338;25.502;2024-01-15T08:52:14;99875.72;;;3.89;94.03
2268;BME280;11052;43.338;25.502;2024-01-15T08:54:42;99873.88;;;4.04;92.59
2268;BME280;11052;43.338;25.502;2024-01-15T08:57:09;99868.66;;;4.11;96.44
2268;BME280;11052;43.338;25.502;2024-01-15T08:59:38;99867.63;;;4.27;94.31
2268;BME280;11052;43.338;25.502;2024-01-15T09:02:07;99867.53;;;4.35;93.36
2268;BME280;11052;43.338;25.502;2024-01-15T09:04:34;99864.78;;;4.50;90.66
2268;BME280;11052;43.338;25.502;2024-01-15T09:07:01;99857.97;;;4.48;88.89
2268;BME280;11052;43.338;25.502;2024-01-15T09:09:29;99855.38;;;4.48;88.78
2268;BME280;11052;43.338;25.502;2024-01-15T09:11:56;99845.91;;;4.53;88.59
2268;BME280;11052;43.338;25.502;2024-01-15T09:14:23;99836.28;;;4.70;87.99
2268;BME280;11052;43.338;25.502;2024-01-15T09:16:54;99834.56;;;4.71;88.81
2268;BME280;11052;43.338;25.502;2024-01-15T09:19:21;99825.16;;;4.70;88.84
2268;BME280;11052;43.338;25.502;2024-01-15T09:21:49;99820.94;;;4.66;91.31
2268;BME280;11052;43.338;25.502;2024-01-15T09:24:16;99814.19;;;4.58;90.49
2268;BME280;11052;43.338;25.502;2024-01-15T09:26:43;99810.84;;;4.52;90.49
2268;BME280;11052;43.338;25.502;2024-01-15T09:29:10;99803.94;;;4.57;91.90
2268;BME280;11052;43.338;25.502;2024-01-15T09:31:37;99793.47;;;4.72;89.36
2268;BME280;11052;43.338;25.502;2024-01-15T09:34:06;99796.75;;;4.82;89.75
2268;BME280;11052;43.338;25.502;2024-01-15T09:36:39;99781.41;;;4.77;92.64
2268;BME280;11052;43.338;25.502;2024-01-15T09:39:06;99777.97;;;4.78;94.51
2268;BME280;11052;43.338;25.502;2024-01-15T09:41:34;99765.16;;;4.77;94.48
2268;BME280;11052;43.338;25.502;2024-01-15T09:44:03;99772.97;;;4.69;96.42
2268;BME280;11052;43.338;25.502;2024-01-15T09:46:31;99767.00;;;4.67;94.32
2268;BME280;11052;43.338;25.502;2024-01-15T09:48:59;99767.84;;;4.69;96.95
2268;BME280;11052;43.338;25.502;2024-01-15T09:51:31;99756.84;;;4.59;97.71
2268;BME280;11052;43.338;25.502;2024-01-15T09:53:58;99750.03;;;4.57;95.48
2268;BME280;11052;43.338;25.502;2024-01-15T09:56:26;99743.03;;;4.68;95.14
2268;BME280;11052;43.338;25.502;2024-01-15T09:58:53;99734.38;;;4.75;96.32
2268;BME280;11052;43.338;25.502;2024-01-15T10:01:20;99739.41;;;4.81;95.17
2268;BME280;11052;43.338;25.502;2024-01-15T10:03:47;99734.28;;;4.81;91.79
2268;BME280;11052;43.338;25.502;2024-01-15T10:06:16;99716.19;;;4.89;93.21
2268;BME280;11052;43.338;25.502;2024-01-15T10:08:49;99708.41;;;4.92;89.64
2268;BME280;11052;43.338;25.502;2024-01-15T10:11:17;99705.97;;;4.84;90.31
2268;BME280;11052;43.338;25.502;2024-01-15T10:13:44;99708.47;;;4.89;89.91
2268;BME280;11052;43.338;25.502;2024-01-15T10:16:11;99704.03;;;4.99;90.68
2268;BME280;11052;43.338;25.502;2024-01-15T10:18:38;99698.72;;;5.09;91.35
2268;BME280;11052;43.338;25.502;2024-01-15T10:21:06;99694.19;;;5.20;90.21
2268;BME280;11052;43.338;25.502;2024-01-15T10:23:34;99691.63;;;5.20;91.15
2268;BME280;11052;43.338;25.502;2024-01-15T10:26:03;99681.16;;;5.31;88.19
2268;BME280;11052;43.338;25.502;2024-01-15T10:28:31;99670.81;;;5.34;88.53
2268;BME280;11052;43.338;25.502;2024-01-15T10:30:59;99660.34;;;5.45;87.65
2268;BME280;11052;43.338;25.502;2024-01-15T10:33:27;99657.63;;;5.52;87.98
2268;BME280;11052;43.338;25.502;2024-01-15T10:35:55;99659.28;;;5.55;88.60
2268;BME280;11052;43.338;25.502;2024-01-15T10:38:23;99652.44;;;5.54;86.47
2268;BME280;11052;43.338;25.502;2024-01-15T10:40:51;99647.78;;;5.73;86.22
2268;BME280;11052;43.338;25.502;2024-01-15T10:43:21;99636.22;;;5.94;86.01
2268;BME280;11052;43.338;25.502;2024-01-15T10:45:49;99624.66;;;6.11;85.66
2268;BME280;11052;43.338;25.502;2024-01-15T10:48:18;99591.72;;;6.25;85.78
2268;BME280;11052;43.338;25.502;2024-01-15T10:50:46;99577.63;;;6.40;85.31
2268;BME280;11052;43.338;25.502;2024-01-15T10:53:15;99577.06;;;6.63;85.22
2268;BME280;11052;43.338;25.502;2024-01-15T10:55:43;99582.75;;;6.76;81.75
2268;BME280;11052;43.338;25.502;2024-01-15T10:58:10;99575.44;;;6.59;83.29
2268;BME280;11052;43.338;25.502;2024-01-15T11:00:39;99573.63;;;6.63;85.03
2268;BME280;11052;43.338;25.502;2024-01-15T11:03:06;99570.22;;;6.62;81.15
2268;BME280;11052;43.338;25.502;2024-01-15T11:05:34;99582.28;;;6.60;84.35
2268;BME280;11052;43.338;25.502;2024-01-15T11:08:05;99575.28;;;6.65;84.96
2268;BME280;11052;43.338;25.502;2024-01-15T11:10:40;99570.47;;;6.85;84.72
2268;BME280;11052;43.338;25.502;2024-01-15T11:13:13;99569.06;;;7.05;82.59
2268;BME280;11052;43.338;25.502;2024-01-15T11:15:59;99559.47;;;7.10;86.11
2268;BME280;11052;43.338;25.502;2024-01-15T11:18:27;99558.09;;;7.28;79.95
2268;BME280;11052;43.338;25.502;2024-01-15T11:21:25;99559.78;;;7.29;80.38
2268;BME280;11052;43.338;25.502;2024-01-15T11:23:54;99561.78;;;7.19;83.21
2268;BME280;11052;43.338;25.502;2024-01-15T11:26:31;99554.31;;;7.10;84.67
2268;BME280;11052;43.338;25.502;2024-01-15T11:28:59;99554.19;;;7.14;88.50
2268;BME280;11052;43.338;25.502;2024-01-15T11:31:29;99540.25;;;7.21;85.71
2268;BME280;11052;43.338;25.502;2024-01-15T11:33:57;99545.81;;;7.06;85.99
2268;BME280;11052;43.338;25.502;2024-01-15T11:39:40;99541.22;;;7.17;87.30
2268;BME280;11052;43.338;25.502;2024-01-15T11:42:10;99535.94;;;7.22;86.56
2268;BME280;11052;43.338;25.502;2024-01-15T11:44:38;99533.25;;;7.54;84.22
2268;BME280;11052;43.338;25.502;2024-01-15T11:47:08;99531.28;;;7.63;83.96
2268;BME280;11052;43.338;25.502;2024-01-15T11:50:01;99519.94;;;7.68;85.19
2268;BME280;11052;43.338;25.502;2024-01-15T11:52:34;99517.03;;;7.79;81.94
2268;BME280;11052;43.338;25.502;2024-01-15T11:55:10;99509.47;;;7.99;81.40
2268;BME280;11052;43.338;25.502;2024-01-15T11:57:41;99509.19;;;8.08;79.08
2268;BME280;11052;43.338;25.502;2024-01-15T12:00:11;99503.91;;;8.11;82.24
2268;BME280;11052;43.338;25.502;2024-01-15T12:02:40;99494.44;;;8.12;82.78
2268;BME280;11052;43.338;25.502;2024-01-15T12:05:08;99497.72;;;8.17;84.21
2268;BME280;11052;43.338;25.502;2024-01-15T12:07:36;99498.84;;;8.08;87.06
2268;BME280;11052;43.338;25.502;2024-01-15T12:10:08;99482.72;;;8.02;84.53
2268;BME280;11052;43.338;25.502;2024-01-15T12:12:57;99486.00;;;8.07;85.61
2268;BME280;11052;43.338;25.502;2024-01-15T12:15:25;99491.69;;;8.16;89.08
2268;BME280;11052;43.338;25.502;2024-01-15T12:17:54;99495.22;;;8.14;88.25
2268;BME280;11052;43.338;25.502;2024-01-15T12:20:24;99489.03;;;8.19;85.84
2268;BME280;11052;43.338;25.502;2024-01-15T12:22:51;99481.72;;;8.32;85.92
2268;BME280;11052;43.338;25.502;2024-01-15T12:25:18;99474.84;;;8.31;85.44
2268;BME280;11052;43.338;25.502;2024-01-15T12:27:46;99477.84;;;8.19;86.07
2268;BME280;11052;43.338;25.502;2024-01-15T12:30:13;99461.78;;;8.11;88.12
2268;BME280;11052;43.338;25.502;2024-01-15T12:32:41;99460.72;;;8.16;87.78
2268;BME280;11052;43.338;25.502;2024-01-15T12:35:10;99460.81;;;8.13;88.51
2268;BME280;11052;43.338;25.502;2024-01-15T12:37:39;99457.50;;;8.10;89.79
2268;BME280;11052;43.338;25.502;2024-01-15T12:40:08;99442.75;;;8.13;89.58
2268;BME280;11052;43.338;25.502;2024-01-15T12:42:36;99434.81;;;8.19;89.84
2268;BME280;11052;43.338;25.502;2024-01-15T12:45:05;99437.22;;;8.24;87.80
2268;BME280;11052;43.338;25.502;2024-01-15T12:47:34;99439.75;;;8.26;88.75
2268;BME280;11052;43.338;25.502;2024-01-15T12:50:01;99436.09;;;8.33;87.13
2268;BME280;11052;43.338;25.502;2024-01-15T12:52:29;99433.66;;;8.53;88.06
2268;BME280;11052;43.338;25.502;2024-01-15T12:54:57;99435.25;;;8.57;85.57
2268;BME280;11052;43.338;25.502;2024-01-15T12:57:24;99442.75;;;8.40;89.64
2268;BME280;11052;43.338;25.502;2024-01-15T12:59:51;99443.75;;;8.36;89.92